sensor_id;sensor_type;location;lat;lon;timestamp;P1;durP1;ratioP1;P2;durP2;ratioP2
25948;SDS011;13961;51.178;4.448;2023-04-19T00:00:59;21.77;;;13.82;;
25948;SDS011;13961;51.178;4.448;2023-04-19T00:03:26;22.10;;;14.07;;
25948;SDS011;13961;51.178;4.448;2023-04-19T00:05:52;23.10;;;13.48;;
25948;SDS011;13961;51.178;4.448;2023-04-19T00:08:18;21.63;;;13.40;;
25948;SDS011;13961;51.178;4.448;2023-04-19T00:10:44;21.55;;;13.45;;
25948;SDS011;13961;51.178;4.448;2023-04-19T00:13:10;24.35;;;13.85;;
25948;SDS011;13961;51.178;4.448;2023-04-19T00:15:36;23.33;;;13.68;;
25948;SDS011;13961;51.178;4.448;2023-04-19T00:18:02;23.90;;;14.73;;
25948;SDS011;13961;51.178;4.448;2023-04-19T00:20:28;23.50;;;13.95;;
25948;SDS011;13961;51.178;4.448;2023-04-19T00:22:53;24.48;;;15.55;;
25948;SDS011;13961;51.178;4.448;2023-04-19T00:25:19;22.50;;;14.23;;
25948;SDS011;13961;51.178;4.448;2023-04-19T00:27:45;23.30;;;14.15;;
25948;SDS011;13961;51.178;4.448;2023-04-19T00:30:10;24.15;;;15.18;;
25948;SDS011;13961;51.178;4.448;2023-04-19T00:32:36;23.65;;;14.43;;
25948;SDS011;13961;51.178;4.448;2023-04-19T00:35:02;23.73;;;14.48;;
25948;SDS011;13961;51.178;4.448;2023-04-19T00:37:28;23.58;;;14.65;;
25948;SDS011;13961;51.178;4.448;2023-04-19T00:39:53;23.85;;;14.48;;
25948;SDS011;13961;51.178;4.448;2023-04-19T00:42:20;25.33;;;14.52;;
25948;SDS011;13961;51.178;4.448;2023-04-19T00:44:46;27.63;;;16.20;;
25948;SDS011;13961;51.178;4.448;2023-04-19T00:47:13;23.48;;;13.65;;
25948;SDS011;13961;51.178;4.448;2023-04-19T00:49:39;23.25;;;14.73;;
25948;SDS011;13961;51.178;4.448;2023-04-19T00:52:06;27.05;;;16.38;;
25948;SDS011;13961;51.178;4.448;2023-04-19T00:54:32;27.30;;;15.90;;
25948;SDS011;13961;51.178;4.448;2023-04-19T00:56:58;24.30;;;15.50;;
25948;SDS011;13961;51.178;4.448;2023-04-19T00:59:25;24.60;;;15.30;;
25948;SDS011;13961;51.178;4.448;2023-04-19T01:01:52;24.45;;;15.07;;
25948;SDS011;13961;51.178;4.448;2023-04-19T01:04:17;27.27;;;15.98;;
25948;SDS011;13961;51.178;4.448;2023-04-19T01:06:43;26.38;;;15.35;;
25948;SDS011;13961;51.178;4.448;2023-04-19T01:09:09;24.00;;;15.32;;
25948;SDS011;13961;51.178;4.448;2023-04-19T01:11:35;25.58;;;15.65;;
25948;SDS011;13961;51.178;4.448;2023-04-19T01:14:00;27.10;;;16.27;;
25948;SDS011;13961;51.178;4.448;2023-04-19T01:16:26;29.40;;;15.45;;
25948;SDS011;13961;51.178;4.448;2023-04-19T01:18:52;27.23;;;15.65;;
25948;SDS011;13961;51.178;4.448;2023-04-19T01:21:18;25.33;;;15.45;;
25948;SDS011;13961;51.178;4.448;2023-04-19T01:23:44;28.90;;;15.98;;
25948;SDS011;13961;51.178;4.448;2023-04-19T01:26:09;27.77;;;16.10;;
25948;SDS011;13961;51.178;4.448;2023-04-19T01:28:35;25.02;;;15.80;;
25948;SDS011;13961;51.178;4.448;2023-04-19T01:31:03;24.88;;;15.07;;
25948;SDS011;13961;51.178;4.448;2023-04-19T01:33:28;28.90;;;16.08;;
25948;SDS011;13961;51.178;4.448;2023-04-19T01:35:54;25.15;;;15.35;;
25948;SDS011;13961;51.178;4.448;2023-04-19T01:38:20;28.73;;;16.50;;
25948;SDS011;13961;51.178;4.448;2023-04-19T01:40:45;26.42;;;15.65;;
25948;SDS011;13961;51.178;4.448;2023-04-19T01:43:12;28.38;;;16.42;;
25948;SDS011;13961;51.178;4.448;2023-04-19T01:45:38;28.85;;;16.17;;
25948;SDS011;13961;51.178;4.448;2023-04-19T01:48:04;26.92;;;16.02;;
25948;SDS011;13961;51.178;4.448;2023-04-19T01:50:30;28.30;;;16.75;;
25948;SDS011;13961;51.178;4.448;2023-04-19T01:52:56;28.55;;;16.15;;
25948;SDS011;13961;51.178;4.448;2023-04-19T01:55:22;26.98;;;15.85;;
25948;SDS011;13961;51.178;4.448;2023-04-19T01:57:48;27.27;;;15.90;;
25948;SDS011;13961;51.178;4.448;2023-04-19T02:00:14;23.13;;;15.20;;
25948;SDS011;13961;51.178;4.448;2023-04-19T02:02:42;25.30;;;14.45;;
25948;SDS011;13961;51.178;4.448;2023-04-19T02:05:08;25.85;;;15.68;;
25948;SDS011;13961;51.178;4.448;2023-04-19T02:07:34;25.42;;;15.57;;
25948;SDS011;13961;51.178;4.448;2023-04-19T02:10:00;24.83;;;15.80;;
25948;SDS011;13961;51.178;4.448;2023-04-19T02:12:26;26.45;;;16.20;;
25948;SDS011;13961;51.178;4.448;2023-04-19T02:14:55;25.02;;;15.23;;
25948;SDS011;13961;51.178;4.448;2023-04-19T02:17:22;25.45;;;16.45;;
25948;SDS011;13961;51.178;4.448;2023-04-19T02:19:48;24.73;;;15.40;;
25948;SDS011;13961;51.178;4.448;2023-04-19T02:22:13;25.33;;;16.13;;
25948;SDS011;13961;51.178;4.448;2023-04-19T02:24:39;25.08;;;15.85;;
25948;SDS011;13961;51.178;4.448;2023-04-19T02:27:05;24.88;;;16.58;;
25948;SDS011;13961;51.178;4.448;2023-04-19T02:29:31;23.50;;;15.30;;
25948;SDS011;13961;51.178;4.448;2023-04-19T02:31:57;27.30;;;16.13;;
25948;SDS011;13961;51.178;4.448;2023-04-19T02:34:23;25.08;;;15.07;;
25948;SDS011;13961;51.178;4.448;2023-04-19T02:36:49;25.35;;;15.65;;
25948;SDS011;13961;51.178;4.448;2023-04-19T02:39:14;26.48;;;15.90;;
25948;SDS011;13961;51.178;4.448;2023-04-19T02:41:41;27.42;;;15.70;;
25948;SDS011;13961;51.178;4.448;2023-04-19T02:44:07;25.52;;;16.27;;
25948;SDS011;13961;51.178;4.448;2023-04-19T02:46:32;29.05;;;16.85;;
25948;SDS011;13961;51.178;4.448;2023-04-19T02:49:01;27.20;;;15.95;;
25948;SDS011;13961;51.178;4.448;2023-04-19T02:51:27;26.08;;;16.20;;
25948;SDS011;13961;51.178;4.448;2023-04-19T02:53:53;26.67;;;16.75;;
25948;SDS011;13961;51.178;4.448;2023-04-19T02:56:19;26.42;;;15.45;;
25948;SDS011;13961;51.178;4.448;2023-04-19T02:58:44;27.52;;;16.60;;
25948;SDS011;13961;51.178;4.448;2023-04-19T03:01:11;25.42;;;15.75;;
25948;SDS011;13961;51.178;4.448;2023-04-19T03:03:37;24.95;;;15.57;;
25948;SDS011;13961;51.178;4.448;2023-04-19T03:06:02;26.17;;;15.75;;
25948;SDS011;13961;51.178;4.448;2023-04-19T03:08:28;24.27;;;15.27;;
25948;SDS011;13961;51.178;4.448;2023-04-19T03:10:54;30.27;;;16.60;;
25948;SDS011;13961;51.178;4.448;2023-04-19T03:13:20;25.73;;;14.95;;
25948;SDS011;13961;51.178;4.448;2023-04-19T03:15:46;28.55;;;15.77;;
25948;SDS011;13961;51.178;4.448;2023-04-19T03:18:12;28.25;;;15.73;;
25948;SDS011;13961;51.178;4.448;2023-04-19T03:20:38;25.77;;;15.23;;
25948;SDS011;13961;51.178;4.448;2023-04-19T03:23:03;26.83;;;15.77;;
25948;SDS011;13961;51.178;4.448;2023-04-19T03:25:29;28.10;;;15.73;;
25948;SDS011;13961;51.178;4.448;2023-04-19T03:27:57;27.33;;;16.10;;
25948;SDS011;13961;51.178;4.448;2023-04-19T03:30:22;26.17;;;15.45;;
25948;SDS011;13961;51.178;4.448;2023-04-19T03:32:48;26.42;;;16.35;;
25948;SDS011;13961;51.178;4.448;2023-04-19T03:35:16;27.15;;;15.77;;
25948;SDS011;13961;51.178;4.448;2023-04-19T03:37:41;25.52;;;15.57;;
25948;SDS011;13961;51.178;4.448;2023-04-19T03:40:07;25.08;;;15.38;;
25948;SDS011;13961;51.178;4.448;2023-04-19T03:42:33;25.75;;;15.95;;
25948;SDS011;13961;51.178;4.448;2023-04-19T03:44:59;24.55;;;14.55;;
25948;SDS011;13961;51.178;4.448;2023-04-19T03:47:24;25.92;;;15.88;;
25948;SDS011;13961;51.178;4.448;2023-04-19T03:49:50;28.33;;;16.30;;
25948;SDS011;13961;51.178;4.448;2023-04-19T03:52:16;28.02;;;17.55;;
25948;SDS011;13961;51.178;4.448;2023-04-19T03:54:41;27.63;;;16.92;;
25948;SDS011;13961;51.178;4.448;2023-04-19T03:57:07;27.83;;;16.42;;
25948;SDS011;13961;51.178;4.448;2023-04-19T03:59:33;26.88;;;17.38;;
25948;SDS011;13961;51.178;4.448;2023-04-19T04:01:59;30.13;;;17.25;;
25948;SDS011;13961;51.178;4.448;2023-04-19T04:04:25;25.70;;;16.02;;
25948;SDS011;13961;51.178;4.448;2023-04-19T04:06:50;25.98;;;16.42;;
25948;SDS011;13961;51.178;4.448;2023-04-19T04:09:16;29.33;;;17.70;;
25948;SDS011;13961;51.178;4.448;2023-04-19T04:11:41;27.70;;;16.77;;
25948;SDS011;13961;51.178;4.448;2023-04-19T04:14:07;26.65;;;17.02;;
25948;SDS011;13961;51.178;4.448;2023-04-19T04:16:33;28.83;;;16.27;;
25948;SDS011;13961;51.178;4.448;2023-04-19T04:18:58;27.00;;;16.75;;
25948;SDS011;13961;51.178;4.448;2023-04-19T04:21:24;28.08;;;16.45;;
25948;SDS011;13961;51.178;4.448;2023-04-19T04:23:51;27.92;;;16.60;;
25948;SDS011;13961;51.178;4.448;2023-04-19T04:26:17;28.70;;;16.33;;
25948;SDS011;13961;51.178;4.448;2023-04-19T04:28:44;28.52;;;16.10;;
25948;SDS011;13961;51.178;4.448;2023-04-19T04:31:10;27.52;;;15.82;;
25948;SDS011;13961;51.178;4.448;2023-04-19T04:33:36;28.42;;;16.48;;
25948;SDS011;13961;51.178;4.448;2023-04-19T04:36:02;27.38;;;15.90;;
25948;SDS011;13961;51.178;4.448;2023-04-19T04:38:29;28.77;;;16.65;;
25948;SDS011;13961;51.178;4.448;2023-04-19T04:40:55;28.80;;;17.70;;
25948;SDS011;13961;51.178;4.448;2023-04-19T04:43:24;30.73;;;17.55;;
25948;SDS011;13961;51.178;4.448;2023-04-19T04:45:53;31.05;;;17.90;;
25948;SDS011;13961;51.178;4.448;2023-04-19T04:48:20;27.52;;;16.27;;
25948;SDS011;13961;51.178;4.448;2023-04-19T04:50:46;29.55;;;16.75;;
25948;SDS011;13961;51.178;4.448;2023-04-19T04:53:13;27.00;;;16.02;;
25948;SDS011;13961;51.178;4.448;2023-04-19T04:55:38;33.65;;;17.52;;
25948;SDS011;13961;51.178;4.448;2023-04-19T04:58:04;27.50;;;16.70;;
25948;SDS011;13961;51.178;4.448;2023-04-19T05:00:30;28.38;;;16.67;;
25948;SDS011;13961;51.178;4.448;2023-04-19T05:02:57;35.22;;;18.50;;
25948;SDS011;13961;51.178;4.448;2023-04-19T05:05:23;33.10;;;17.40;;
25948;SDS011;13961;51.178;4.448;2023-04-19T05:07:49;28.73;;;15.68;;
25948;SDS011;13961;51.178;4.448;2023-04-19T05:10:14;30.65;;;17.52;;
25948;SDS011;13961;51.178;4.448;2023-04-19T05:12:40;26.48;;;17.13;;
25948;SDS011;13961;51.178;4.448;2023-04-19T05:15:06;29.33;;;16.45;;
25948;SDS011;13961;51.178;4.448;2023-04-19T05:17:32;24.98;;;15.98;;
25948;SDS011;13961;51.178;4.448;2023-04-19T05:19:58;29.45;;;16.70;;
25948;SDS011;13961;51.178;4.448;2023-04-19T05:22:24;27.90;;;16.65;;
25948;SDS011;13961;51.178;4.448;2023-04-19T05:24:50;33.38;;;17.40;;
25948;SDS011;13961;51.178;4.448;2023-04-19T05:27:16;26.90;;;15.95;;
25948;SDS011;13961;51.178;4.448;2023-04-19T05:29:41;28.52;;;16.08;;
25948;SDS011;13961;51.178;4.448;2023-04-19T05:32:07;28.98;;;17.33;;
25948;SDS011;13961;51.178;4.448;2023-04-19T05:34:33;29.42;;;17.40;;
25948;SDS011;13961;51.178;4.448;2023-04-19T05:37:01;30.58;;;16.40;;
25948;SDS011;13961;51.178;4.448;2023-04-19T05:39:27;27.13;;;16.95;;
25948;SDS011;13961;51.178;4.448;2023-04-19T05:41:53;29.10;;;16.83;;
25948;SDS011;13961;51.178;4.448;2023-04-19T05:44:18;26.10;;;15.60;;
25948;SDS011;13961;51.178;4.448;2023-04-19T05:46:44;26.45;;;15.65;;
25948;SDS011;13961;51.178;4.448;2023-04-19T05:49:10;27.48;;;15.70;;
25948;SDS011;13961;51.178;4.448;2023-04-19T05:51:35;24.73;;;15.13;;
25948;SDS011;13961;51.178;4.448;2023-04-19T05:54:01;24.08;;;14.80;;
25948;SDS011;13961;51.178;4.448;2023-04-19T05:56:27;28.33;;;15.68;;
25948;SDS011;13961;51.178;4.448;2023-04-19T05:58:53;25.25;;;15.02;;
25948;SDS011;13961;51.178;4.448;2023-04-19T06:01:20;24.65;;;14.77;;
25948;SDS011;13961;51.178;4.448;2023-04-19T06:03:46;25.05;;;14.43;;
25948;SDS011;13961;51.178;4.448;2023-04-19T06:06:16;25.13;;;13.98;;
25948;SDS011;13961;51.178;4.448;2023-04-19T06:08:43;21.13;;;13.50;;
25948;SDS011;13961;51.178;4.448;2023-04-19T06:11:08;24.27;;;13.60;;
25948;SDS011;13961;51.178;4.448;2023-04-19T06:13:34;23.33;;;14.18;;
25948;SDS011;13961;51.178;4.448;2023-04-19T06:16:00;26.92;;;14.45;;
25948;SDS011;13961;51.178;4.448;2023-04-19T06:18:26;20.50;;;12.73;;
25948;SDS011;13961;51.178;4.448;2023-04-19T06:20:51;23.00;;;12.35;;
25948;SDS011;13961;51.178;4.448;2023-04-19T06:23:17;22.75;;;13.55;;
25948;SDS011;13961;51.178;4.448;2023-04-19T06:25:43;22.35;;;13.68;;
25948;SDS011;13961;51.178;4.448;2023-04-19T06:28:09;22.40;;;12.90;;
25948;SDS011;13961;51.178;4.448;2023-04-19T06:30:35;23.77;;;13.38;;
25948;SDS011;13961;51.178;4.448;2023-04-19T06:33:00;25.00;;;13.23;;
25948;SDS011;13961;51.178;4.448;2023-04-19T06:35:26;19.85;;;11.65;;
25948;SDS011;13961;51.178;4.448;2023-04-19T06:37:52;22.83;;;12.73;;
25948;SDS011;13961;51.178;4.448;2023-04-19T06:40:17;21.00;;;12.38;;
25948;SDS011;13961;51.178;4.448;2023-04-19T06:42:43;19.52;;;12.48;;
25948;SDS011;13961;51.178;4.448;2023-04-19T06:45:09;20.23;;;12.40;;
25948;SDS011;13961;51.178;4.448;2023-04-19T06:47:35;29.90;;;13.30;;
25948;SDS011;13961;51.178;4.448;2023-04-19T06:50:01;23.23;;;12.70;;
25948;SDS011;13961;51.178;4.448;2023-04-19T06:52:27;16.10;;;10.55;;
25948;SDS011;13961;51.178;4.448;2023-04-19T06:54:53;15.98;;;10.82;;
25948;SDS011;13961;51.178;4.448;2023-04-19T06:57:19;18.65;;;11.00;;
25948;SDS011;13961;51.178;4.448;2023-04-19T06:59:48;15.85;;;10.88;;
25948;SDS011;13961;51.178;4.448;2023-04-19T07:02:13;16.80;;;10.68;;
25948;SDS011;13961;51.178;4.448;2023-04-19T07:04:39;16.33;;;11.23;;
25948;SDS011;13961;51.178;4.448;2023-04-19T07:07:04;14.52;;;10.40;;
25948;SDS011;13961;51.178;4.448;2023-04-19T07:09:30;15.27;;;10.77;;
25948;SDS011;13961;51.178;4.448;2023-04-19T07:11:56;15.57;;;10.60;;
25948;SDS011;13961;51.178;4.448;2023-04-19T07:14:22;12.88;;;9.05;;
25948;SDS011;13961;51.178;4.448;2023-04-19T07:16:48;14.75;;;9.57;;
25948;SDS011;13961;51.178;4.448;2023-04-19T07:19:14;13.60;;;9.18;;
25948;SDS011;13961;51.178;4.448;2023-04-19T07:21:39;14.40;;;9.40;;
25948;SDS011;13961;51.178;4.448;2023-04-19T07:24:05;13.85;;;10.05;;
25948;SDS011;13961;51.178;4.448;2023-04-19T07:26:31;14.50;;;9.05;;
25948;SDS011;13961;51.178;4.448;2023-04-19T07:28:58;14.15;;;8.45;;
25948;SDS011;13961;51.178;4.448;2023-04-19T07:31:24;15.93;;;9.18;;
25948;SDS011;13961;51.178;4.448;2023-04-19T07:33:50;14.20;;;8.65;;
25948;SDS011;13961;51.178;4.448;2023-04-19T07:36:16;12.00;;;8.30;;
25948;SDS011;13961;51.178;4.448;2023-04-19T07:38:42;11.55;;;8.20;;
25948;SDS011;13961;51.178;4.448;2023-04-19T07:41:08;11.20;;;7.88;;
25948;SDS011;13961;51.178;4.448;2023-04-19T07:43:34;11.32;;;8.75;;
25948;SDS011;13961;51.178;4.448;2023-04-19T07:46:00;14.02;;;7.88;;
25948;SDS011;13961;51.178;4.448;2023-04-19T07:48:27;12.05;;;7.95;;
25948;SDS011;13961;51.178;4.448;2023-04-19T07:50:52;10.30;;;7.47;;
25948;SDS011;13961;51.178;4.448;2023-04-19T07:53:18;14.32;;;8.75;;
25948;SDS011;13961;51.178;4.448;2023-04-19T07:55:44;11.05;;;7.32;;
25948;SDS011;13961;51.178;4.448;2023-04-19T07:58:10;11.10;;;7.45;;
25948;SDS011;13961;51.178;4.448;2023-04-19T08:00:36;12.23;;;6.93;;
25948;SDS011;13961;51.178;4.448;2023-04-19T08:03:02;11.55;;;7.38;;
25948;SDS011;13961;51.178;4.448;2023-04-19T08:05:31;12.02;;;7.70;;
25948;SDS011;13961;51.178;4.448;2023-04-19T08:07:56;12.18;;;7.32;;
25948;SDS011;13961;51.178;4.448;2023-04-19T08:10:22;10.80;;;6.68;;
25948;SDS011;13961;51.178;4.448;2023-04-19T08:12:48;8.20;;;6.82;;
25948;SDS011;13961;51.178;4.448;2023-04-19T08:15:15;11.00;;;6.75;;
25948;SDS011;13961;51.178;4.448;2023-04-19T08:17:41;11.30;;;7.13;;
25948;SDS011;13961;51.178;4.448;2023-04-19T08:20:08;8.65;;;6.50;;
25948;SDS011;13961;51.178;4.448;2023-04-19T08:22:36;9.18;;;6.95;;
25948;SDS011;13961;51.178;4.448;2023-04-19T08:25:03;37.25;;;9.95;;
25948;SDS011;13961;51.178;4.448;2023-04-19T08:27:30;10.57;;;7.13;;
25948;SDS011;13961;51.178;4.448;2023-04-19T08:29:56;9.13;;;6.47;;
25948;SDS011;13961;51.178;4.448;2023-04-19T08:32:22;10.60;;;6.80;;
25948;SDS011;13961;51.178;4.448;2023-04-19T08:34:47;11.13;;;7.30;;
25948;SDS011;13961;51.178;4.448;2023-04-19T08:37:13;8.68;;;6.28;;
25948;SDS011;13961;51.178;4.448;2023-04-19T08:39:41;9.52;;;6.60;;
25948;SDS011;13961;51.178;4.448;2023-04-19T08:42:08;9.07;;;6.20;;
25948;SDS011;13961;51.178;4.448;2023-04-19T08:44:35;8.88;;;6.97;;
25948;SDS011;13961;51.178;4.448;2023-04-19T08:47:04;9.35;;;6.13;;
25948;SDS011;13961;51.178;4.448;2023-04-19T08:49:34;10.30;;;6.45;;
25948;SDS011;13961;51.178;4.448;2023-04-19T08:52:03;8.98;;;6.40;;
25948;SDS011;13961;51.178;4.448;2023-04-19T08:54:30;9.07;;;6.57;;
25948;SDS011;13961;51.178;4.448;2023-04-19T08:56:59;10.50;;;7.05;;
25948;SDS011;13961;51.178;4.448;2023-04-19T08:59:26;9.10;;;6.95;;
25948;SDS011;13961;51.178;4.448;2023-04-19T09:01:54;9.98;;;6.85;;
25948;SDS011;13961;51.178;4.448;2023-04-19T09:04:23;10.40;;;6.70;;
25948;SDS011;13961;51.178;4.448;2023-04-19T09:06:49;8.82;;;6.40;;
25948;SDS011;13961;51.178;4.448;2023-04-19T09:09:24;10.50;;;6.72;;
25948;SDS011;13961;51.178;4.448;2023-04-19T09:11:51;7.75;;;6.43;;
25948;SDS011;13961;51.178;4.448;2023-04-19T09:14:18;10.48;;;6.88;;
25948;SDS011;13961;51.178;4.448;2023-04-19T09:16:45;10.70;;;6.60;;
25948;SDS011;13961;51.178;4.448;2023-04-19T09:19:11;9.63;;;6.90;;
25948;SDS011;13961;51.178;4.448;2023-04-19T09:21:38;10.48;;;6.32;;
25948;SDS011;13961;51.178;4.448;2023-04-19T09:24:04;8.60;;;5.95;;
25948;SDS011;13961;51.178;4.448;2023-04-19T09:26:31;10.02;;;6.43;;
25948;SDS011;13961;51.178;4.448;2023-04-19T09:28:58;14.70;;;7.65;;
25948;SDS011;13961;51.178;4.448;2023-04-19T09:31:27;9.45;;;6.22;;
25948;SDS011;13961;51.178;4.448;2023-04-19T09:33:53;9.05;;;6.53;;
25948;SDS011;13961;51.178;4.448;2023-04-19T09:36:26;10.75;;;6.93;;
25948;SDS011;13961;51.178;4.448;2023-04-19T09:39:00;8.57;;;6.40;;
25948;SDS011;13961;51.178;4.448;2023-04-19T09:41:29;21.40;;;8.05;;
25948;SDS011;13961;51.178;4.448;2023-04-19T09:44:11;16.70;;;7.50;;
25948;SDS011;13961;51.178;4.448;2023-04-19T09:46:41;12.07;;;6.87;;
25948;SDS011;13961;51.178;4.448;2023-04-19T09:51:44;10.93;;;6.82;;
25948;SDS011;13961;51.178;4.448;2023-04-19T09:54:14;10.52;;;6.93;;
25948;SDS011;13961;51.178;4.448;2023-04-19T09:56:41;9.63;;;6.78;;
25948;SDS011;13961;51.178;4.448;2023-04-19T09:59:08;8.75;;;7.15;;
25948;SDS011;13961;51.178;4.448;2023-04-19T10:01:36;10.80;;;6.70;;
25948;SDS011;13961;51.178;4.448;2023-04-19T10:04:05;11.02;;;7.22;;
25948;SDS011;13961;51.178;4.448;2023-04-19T10:06:32;10.55;;;6.95;;
25948;SDS011;13961;51.178;4.448;2023-04-19T10:09:00;35.85;;;8.88;;
25948;SDS011;13961;51.178;4.448;2023-04-19T10:11:33;11.32;;;7.18;;
25948;SDS011;13961;51.178;4.448;2023-04-19T10:14:03;12.98;;;8.00;;
25948;SDS011;13961;51.178;4.448;2023-04-19T10:16:30;11.85;;;7.53;;
25948;SDS011;13961;51.178;4.448;2023-04-19T10:18:57;11.68;;;6.85;;
25948;SDS011;13961;51.178;4.448;2023-04-19T10:21:28;44.35;;;10.85;;
25948;SDS011;13961;51.178;4.448;2023-04-19T10:23:55;14.35;;;8.10;;
25948;SDS011;13961;51.178;4.448;2023-04-19T10:26:22;14.90;;;7.65;;
25948;SDS011;13961;51.178;4.448;2023-04-19T10:28:48;11.32;;;7.22;;
25948;SDS011;13961;51.178;4.448;2023-04-19T10:31:14;11.20;;;6.63;;
25948;SDS011;13961;51.178;4.448;2023-04-19T10:33:45;12.18;;;6.80;;
25948;SDS011;13961;51.178;4.448;2023-04-19T10:36:15;9.85;;;6.43;;
25948;SDS011;13961;51.178;4.448;2023-04-19T10:38:43;12.75;;;6.85;;
25948;SDS011;13961;51.178;4.448;2023-04-19T10:41:20;30.73;;;8.65;;
25948;SDS011;13961;51.178;4.448;2023-04-19T10:43:47;14.23;;;7.32;;
25948;SDS011;13961;51.178;4.448;2023-04-19T10:49:00;9.43;;;6.80;;
25948;SDS011;13961;51.178;4.448;2023-04-19T10:51:33;11.40;;;7.18;;
25948;SDS011;13961;51.178;4.448;2023-04-19T11:04:16;9.35;;;6.35;;
25948;SDS011;13961;51.178;4.448;2023-04-19T11:07:08;9.60;;;6.78;;
25948;SDS011;13961;51.178;4.448;2023-04-19T11:09:34;10.45;;;5.70;;
25948;SDS011;13961;51.178;4.448;2023-04-19T11:12:04;8.55;;;5.82;;
25948;SDS011;13961;51.178;4.448;2023-04-19T11:14:42;10.93;;;5.43;;
25948;SDS011;13961;51.178;4.448;2023-04-19T11:17:13;8.00;;;5.38;;
25948;SDS011;13961;51.178;4.448;2023-04-19T11:19:50;10.32;;;5.90;;
25948;SDS011;13961;51.178;4.448;2023-04-19T11:22:31;10.40;;;6.45;;
25948;SDS011;13961;51.178;4.448;2023-04-19T11:25:07;12.75;;;6.13;;
25948;SDS011;13961;51.178;4.448;2023-04-19T11:30:11;8.35;;;4.85;;
25948;SDS011;13961;51.178;4.448;2023-04-19T11:32:47;8.32;;;5.30;;
25948;SDS011;13961;51.178;4.448;2023-04-19T11:35:25;7.35;;;4.93;;
25948;SDS011;13961;51.178;4.448;2023-04-19T11:37:52;9.48;;;4.70;;
25948;SDS011;13961;51.178;4.448;2023-04-19T11:40:21;11.43;;;4.65;;
25948;SDS011;13961;51.178;4.448;2023-04-19T11:42:57;6.00;;;4.65;;
25948;SDS011;13961;51.178;4.448;2023-04-19T11:45:28;7.15;;;4.10;;
25948;SDS011;13961;51.178;4.448;2023-04-19T11:47:55;7.63;;;5.07;;
25948;SDS011;13961;51.178;4.448;2023-04-19T11:50:31;9.50;;;4.07;;
25948;SDS011;13961;51.178;4.448;2023-04-19T11:53:16;48.42;;;7.82;;
25948;SDS011;13961;51.178;4.448;2023-04-19T11:55:49;10.68;;;4.05;;
25948;SDS011;13961;51.178;4.448;2023-04-19T12:00:55;11.45;;;3.95;;
25948;SDS011;13961;51.178;4.448;2023-04-19T12:03:24;5.88;;;3.80;;
25948;SDS011;13961;51.178;4.448;2023-04-19T12:05:59;5.03;;;3.50;;
25948;SDS011;13961;51.178;4.448;2023-04-19T12:08:37;5.57;;;3.47;;
25948;SDS011;13961;51.178;4.448;2023-04-19T12:11:06;8.05;;;4.03;;
25948;SDS011;13961;51.178;4.448;2023-04-19T12:13:32;4.78;;;3.30;;
25948;SDS011;13961;51.178;4.448;2023-04-19T12:15:59;4.93;;;3.53;;
25948;SDS011;13961;51.178;4.448;2023-04-19T12:18:24;4.68;;;3.20;;
25948;SDS011;13961;51.178;4.448;2023-04-19T12:20:51;3.75;;;3.20;;
25948;SDS011;13961;51.178;4.448;2023-04-19T12:23:18;4.68;;;3.33;;
25948;SDS011;13961;51.178;4.448;2023-04-19T12:25:45;4.90;;;3.50;;
25948;SDS011;13961;51.178;4.448;2023-04-19T12:28:12;4.63;;;3.20;;
25948;SDS011;13961;51.178;4.448;2023-04-19T12:30:39;4.35;;;3.10;;
25948;SDS011;13961;51.178;4.448;2023-04-19T12:33:05;6.03;;;2.85;;
25948;SDS011;13961;51.178;4.448;2023-04-19T12:35:32;26.20;;;4.45;;
25948;SDS011;13961;51.178;4.448;2023-04-19T12:37:58;5.13;;;3.10;;
25948;SDS011;13961;51.178;4.448;2023-04-19T12:40:25;7.57;;;2.90;;
25948;SDS011;13961;51.178;4.448;2023-04-19T12:42:51;5.60;;;3.22;;
25948;SDS011;13961;51.178;4.448;2023-04-19T12:45:18;5.18;;;2.90;;
25948;SDS011;13961;51.178;4.448;2023-04-19T12:47:44;3.60;;;2.75;;
25948;SDS011;13961;51.178;4.448;2023-04-19T12:50:12;7.53;;;2.88;;
25948;SDS011;13961;51.178;4.448;2023-04-19T12:52:39;4.30;;;2.40;;
25948;SDS011;13961;51.178;4.448;2023-04-19T12:55:05;6.05;;;2.83;;
25948;SDS011;13961;51.178;4.448;2023-04-19T12:57:32;5.07;;;2.65;;
25948;SDS011;13961;51.178;4.448;2023-04-19T12:59:57;3.65;;;2.70;;
25948;SDS011;13961;51.178;4.448;2023-04-19T13:02:23;4.00;;;2.70;;
25948;SDS011;13961;51.178;4.448;2023-04-19T13:04:49;4.97;;;2.63;;
25948;SDS011;13961;51.178;4.448;2023-04-19T13:07:15;4.07;;;2.33;;
25948;SDS011;13961;51.178;4.448;2023-04-19T13:09:43;5.00;;;2.40;;
25948;SDS011;13961;51.178;4.448;2023-04-19T13:12:09;5.32;;;2.60;;
25948;SDS011;13961;51.178;4.448;2023-04-19T13:14:36;3.28;;;2.40;;
25948;SDS011;13961;51.178;4.448;2023-04-19T13:17:01;3.63;;;2.05;;
25948;SDS011;13961;51.178;4.448;2023-04-19T13:19:30;2.67;;;2.30;;
25948;SDS011;13961;51.178;4.448;2023-04-19T13:21:55;5.30;;;2.22;;
25948;SDS011;13961;51.178;4.448;2023-04-19T13:24:21;2.28;;;1.80;;
25948;SDS011;13961;51.178;4.448;2023-04-19T13:26:47;2.58;;;1.98;;
25948;SDS011;13961;51.178;4.448;2023-04-19T13:29:12;8.15;;;2.40;;
25948;SDS011;13961;51.178;4.448;2023-04-19T13:31:44;3.97;;;2.00;;
25948;SDS011;13961;51.178;4.448;2023-04-19T13:34:11;2.63;;;1.90;;
25948;SDS011;13961;51.178;4.448;2023-04-19T13:36:36;2.97;;;1.58;;
25948;SDS011;13961;51.178;4.448;2023-04-19T13:39:03;5.47;;;2.17;;
25948;SDS011;13961;51.178;4.448;2023-04-19T13:41:28;4.95;;;2.00;;
25948;SDS011;13961;51.178;4.448;2023-04-19T13:43:54;6.53;;;2.13;;
25948;SDS011;13961;51.178;4.448;2023-04-19T13:46:19;2.45;;;2.25;;
25948;SDS011;13961;51.178;4.448;2023-04-19T13:48:45;7.05;;;1.80;;
25948;SDS011;13961;51.178;4.448;2023-04-19T13:51:12;4.03;;;2.20;;
25948;SDS011;13961;51.178;4.448;2023-04-19T13:53:37;3.78;;;1.90;;
25948;SDS011;13961;51.178;4.448;2023-04-19T13:56:05;3.42;;;1.92;;
25948;SDS011;13961;51.178;4.448;2023-04-19T13:58:33;3.97;;;2.13;;
25948;SDS011;13961;51.178;4.448;2023-04-19T14:01:00;3.20;;;1.80;;
25948;SDS011;13961;51.178;4.448;2023-04-19T14:03:26;2.92;;;2.10;;
25948;SDS011;13961;51.178;4.448;2023-04-19T14:05:51;3.40;;;2.35;;
25948;SDS011;13961;51.178;4.448;2023-04-19T14:08:17;3.85;;;2.33;;
25948;SDS011;13961;51.178;4.448;2023-04-19T14:10:43;3.40;;;2.10;;
25948;SDS011;13961;51.178;4.448;2023-04-19T14:13:08;3.30;;;2.10;;
25948;SDS011;13961;51.178;4.448;2023-04-19T14:15:34;5.18;;;2.40;;
25948;SDS011;13961;51.178;4.448;2023-04-19T14:18:00;4.57;;;2.38;;
25948;SDS011;13961;51.178;4.448;2023-04-19T14:20:26;3.60;;;2.47;;
25948;SDS011;13961;51.178;4.448;2023-04-19T14:22:52;3.60;;;2.38;;
25948;SDS011;13961;51.178;4.448;2023-04-19T14:25:20;6.95;;;2.63;;
25948;SDS011;13961;51.178;4.448;2023-04-19T14:27:46;3.65;;;2.05;;
25948;SDS011;13961;51.178;4.448;2023-04-19T14:30:12;3.28;;;2.50;;
25948;SDS011;13961;51.178;4.448;2023-04-19T14:32:38;3.35;;;2.10;;
25948;SDS011;13961;51.178;4.448;2023-04-19T14:35:03;3.95;;;2.15;;
25948;SDS011;13961;51.178;4.448;2023-04-19T14:37:29;2.20;;;1.80;;
25948;SDS011;13961;51.178;4.448;2023-04-19T14:39:55;5.85;;;2.42;;
25948;SDS011;13961;51.178;4.448;2023-04-19T14:42:21;3.28;;;1.80;;
25948;SDS011;13961;51.178;4.448;2023-04-19T14:47:15;2.78;;;2.55;;
25948;SDS011;13961;51.178;4.448;2023-04-19T14:49:40;2.67;;;2.08;;
25948;SDS011;13961;51.178;4.448;2023-04-19T14:52:06;3.47;;;2.30;;